sensor_id;sensor_type;location;lat;lon;timestamp;P1;durP1;ratioP1;P2;durP2;ratioP2
64667;SDS011;51077;42.716;23.344;2022-10-31T00:01:12;7.43;;;3.13;;
64667;SDS011;51077;42.716;23.344;2022-10-31T00:03:39;5.93;;;3.60;;
64667;SDS011;51077;42.716;23.344;2022-10-31T00:06:04;7.13;;;3.47;;
64667;SDS011;51077;42.716;23.344;2022-10-31T00:08:30;6.80;;;3.70;;
64667;SDS011;51077;42.716;23.344;2022-10-31T00:10:55;6.83;;;3.63;;
64667;SDS011;51077;42.716;23.344;2022-10-31T00:13:20;5.00;;;3.17;;
64667;SDS011;51077;42.716;23.344;2022-10-31T00:15:46;6.87;;;3.43;;
64667;SDS011;51077;42.716;23.344;2022-10-31T00:18:11;6.73;;;3.33;;
64667;SDS011;51077;42.716;23.344;2022-10-31T00:20:37;6.47;;;3.53;;
64667;SDS011;51077;42.716;23.344;2022-10-31T00:23:03;11.68;;;3.38;;
64667;SDS011;51077;42.716;23.344;2022-10-31T00:25:32;7.05;;;3.45;;
64667;SDS011;51077;42.716;23.344;2022-10-31T00:28:00;6.18;;;3.70;;
64667;SDS011;51077;42.716;23.344;2022-10-31T00:30:26;10.10;;;3.27;;
64667;SDS011;51077;42.716;23.344;2022-10-31T00:32:51;7.93;;;3.50;;
64667;SDS011;51077;42.716;23.344;2022-10-31T00:35:17;6.97;;;4.03;;
64667;SDS011;51077;42.716;23.344;2022-10-31T00:37:42;7.87;;;3.90;;
64667;SDS011;51077;42.716;23.344;2022-10-31T00:40:08;10.33;;;3.97;;
64667;SDS011;51077;42.716;23.344;2022-10-31T00:42:34;8.35;;;4.22;;
64667;SDS011;51077;42.716;23.344;2022-10-31T00:44:59;7.13;;;4.27;;
64667;SDS011;51077;42.716;23.344;2022-10-31T00:47:24;8.37;;;4.50;;
64667;SDS011;51077;42.716;23.344;2022-10-31T00:49:50;7.57;;;4.20;;
64667;SDS011;51077;42.716;23.344;2022-10-31T00:52:15;7.53;;;4.60;;
64667;SDS011;51077;42.716;23.344;2022-10-31T00:54:40;9.10;;;4.83;;
64667;SDS011;51077;42.716;23.344;2022-10-31T00:57:06;9.50;;;4.40;;
64667;SDS011;51077;42.716;23.344;2022-10-31T00:59:31;9.40;;;4.80;;
64667;SDS011;51077;42.716;23.344;2022-10-31T01:01:56;8.03;;;4.50;;
64667;SDS011;51077;42.716;23.344;2022-10-31T01:04:22;12.37;;;4.90;;
64667;SDS011;51077;42.716;23.344;2022-10-31T01:06:47;9.17;;;5.20;;
64667;SDS011;51077;42.716;23.344;2022-10-31T01:09:13;12.20;;;5.07;;
64667;SDS011;51077;42.716;23.344;2022-10-31T01:11:38;10.07;;;4.60;;
64667;SDS011;51077;42.716;23.344;2022-10-31T01:14:03;8.73;;;4.80;;
64667;SDS011;51077;42.716;23.344;2022-10-31T01:16:29;12.57;;;5.60;;
64667;SDS011;51077;42.716;23.344;2022-10-31T01:18:55;10.57;;;4.80;;
64667;SDS011;51077;42.716;23.344;2022-10-31T01:21:25;9.95;;;5.32;;
64667;SDS011;51077;42.716;23.344;2022-10-31T01:23:53;12.15;;;5.32;;
64667;SDS011;51077;42.716;23.344;2022-10-31T01:26:23;11.60;;;5.68;;
64667;SDS011;51077;42.716;23.344;2022-10-31T01:28:54;8.43;;;5.20;;
64667;SDS011;51077;42.716;23.344;2022-10-31T01:31:25;10.48;;;5.72;;
64667;SDS011;51077;42.716;23.344;2022-10-31T01:33:53;9.73;;;5.63;;
64667;SDS011;51077;42.716;23.344;2022-10-31T01:36:20;11.27;;;6.05;;
64667;SDS011;51077;42.716;23.344;2022-10-31T01:38:48;11.27;;;5.40;;
64667;SDS011;51077;42.716;23.344;2022-10-31T01:41:17;11.73;;;5.90;;
64667;SDS011;51077;42.716;23.344;2022-10-31T01:46:10;10.90;;;5.35;;
64667;SDS011;51077;42.716;23.344;2022-10-31T01:48:37;10.55;;;5.90;;
64667;SDS011;51077;42.716;23.344;2022-10-31T01:51:04;9.80;;;5.43;;
64667;SDS011;51077;42.716;23.344;2022-10-31T01:53:31;10.80;;;5.68;;
64667;SDS011;51077;42.716;23.344;2022-10-31T01:55:57;11.88;;;5.13;;
64667;SDS011;51077;42.716;23.344;2022-10-31T01:58:25;8.43;;;4.78;;
64667;SDS011;51077;42.716;23.344;2022-10-31T02:00:54;9.50;;;4.90;;
64667;SDS011;51077;42.716;23.344;2022-10-31T02:03:22;10.27;;;5.75;;
64667;SDS011;51077;42.716;23.344;2022-10-31T02:05:49;11.23;;;5.35;;
64667;SDS011;51077;42.716;23.344;2022-10-31T02:08:20;11.30;;;5.55;;
64667;SDS011;51077;42.716;23.344;2022-10-31T02:10:50;11.90;;;5.45;;
64667;SDS011;51077;42.716;23.344;2022-10-31T02:13:16;8.43;;;5.07;;
64667;SDS011;51077;42.716;23.344;2022-10-31T02:15:42;9.35;;;5.03;;
64667;SDS011;51077;42.716;23.344;2022-10-31T02:18:10;9.48;;;5.50;;
64667;SDS011;51077;42.716;23.344;2022-10-31T02:20:44;10.70;;;5.87;;
64667;SDS011;51077;42.716;23.344;2022-10-31T02:34:18;9.98;;;5.30;;
64667;SDS011;51077;42.716;23.344;2022-10-31T02:39:39;10.25;;;6.45;;
64667;SDS011;51077;42.716;23.344;2022-10-31T02:42:32;9.77;;;6.10;;
64667;SDS011;51077;42.716;23.344;2022-10-31T02:47:39;11.35;;;6.15;;
64667;SDS011;51077;42.716;23.344;2022-10-31T02:52:44;13.15;;;6.40;;
64667;SDS011;51077;42.716;23.344;2022-10-31T02:57:53;13.25;;;6.80;;
64667;SDS011;51077;42.716;23.344;2022-10-31T03:00:21;12.73;;;7.25;;
64667;SDS011;51077;42.716;23.344;2022-10-31T03:05:19;11.27;;;7.40;;
64667;SDS011;51077;42.716;23.344;2022-10-31T03:10:45;12.40;;;6.60;;
64667;SDS011;51077;42.716;23.344;2022-10-31T03:16:07;14.90;;;6.50;;
64667;SDS011;51077;42.716;23.344;2022-10-31T03:18:40;13.93;;;6.75;;
64667;SDS011;51077;42.716;23.344;2022-10-31T03:24:11;9.38;;;6.07;;
64667;SDS011;51077;42.716;23.344;2022-10-31T03:26:49;17.70;;;6.80;;
64667;SDS011;51077;42.716;23.344;2022-10-31T03:29:19;15.55;;;6.35;;
64667;SDS011;51077;42.716;23.344;2022-10-31T03:31:51;14.10;;;7.15;;
64667;SDS011;51077;42.716;23.344;2022-10-31T03:34:19;11.55;;;6.70;;
64667;SDS011;51077;42.716;23.344;2022-10-31T03:36:46;14.48;;;6.70;;
64667;SDS011;51077;42.716;23.344;2022-10-31T03:39:15;13.95;;;7.00;;
64667;SDS011;51077;42.716;23.344;2022-10-31T03:41:45;12.20;;;6.53;;
64667;SDS011;51077;42.716;23.344;2022-10-31T03:44:15;14.18;;;6.95;;
64667;SDS011;51077;42.716;23.344;2022-10-31T03:46:44;12.32;;;7.00;;
64667;SDS011;51077;42.716;23.344;2022-10-31T03:49:10;15.18;;;7.47;;
64667;SDS011;51077;42.716;23.344;2022-10-31T03:51:41;9.07;;;6.60;;
64667;SDS011;51077;42.716;23.344;2022-10-31T03:56:43;11.77;;;6.18;;
64667;SDS011;51077;42.716;23.344;2022-10-31T03:59:19;9.15;;;6.00;;
64667;SDS011;51077;42.716;23.344;2022-10-31T04:01:52;14.68;;;6.82;;
64667;SDS011;51077;42.716;23.344;2022-10-31T04:04:21;11.32;;;6.70;;
64667;SDS011;51077;42.716;23.344;2022-10-31T04:06:47;13.77;;;7.20;;
64667;SDS011;51077;42.716;23.344;2022-10-31T04:09:15;13.82;;;7.07;;
64667;SDS011;51077;42.716;23.344;2022-10-31T04:11:48;13.43;;;7.28;;
64667;SDS011;51077;42.716;23.344;2022-10-31T04:14:16;9.90;;;6.55;;
64667;SDS011;51077;42.716;23.344;2022-10-31T04:16:42;11.83;;;7.10;;
64667;SDS011;51077;42.716;23.344;2022-10-31T04:19:09;13.80;;;6.57;;
64667;SDS011;51077;42.716;23.344;2022-10-31T04:21:36;10.95;;;6.53;;
64667;SDS011;51077;42.716;23.344;2022-10-31T04:24:01;11.50;;;7.10;;
64667;SDS011;51077;42.716;23.344;2022-10-31T04:26:27;14.27;;;7.65;;
64667;SDS011;51077;42.716;23.344;2022-10-31T04:28:53;16.67;;;7.53;;
64667;SDS011;51077;42.716;23.344;2022-10-31T04:31:18;17.13;;;6.97;;
64667;SDS011;51077;42.716;23.344;2022-10-31T04:33:44;16.37;;;7.17;;
64667;SDS011;51077;42.716;23.344;2022-10-31T04:36:09;12.83;;;6.43;;
64667;SDS011;51077;42.716;23.344;2022-10-31T04:38:35;19.00;;;7.97;;
64667;SDS011;51077;42.716;23.344;2022-10-31T04:41:00;12.07;;;7.53;;
64667;SDS011;51077;42.716;23.344;2022-10-31T04:43:26;16.53;;;8.43;;
64667;SDS011;51077;42.716;23.344;2022-10-31T04:45:51;15.40;;;8.37;;
64667;SDS011;51077;42.716;23.344;2022-10-31T04:48:17;17.37;;;8.43;;
64667;SDS011;51077;42.716;23.344;2022-10-31T04:50:42;12.63;;;8.33;;
64667;SDS011;51077;42.716;23.344;2022-10-31T04:53:07;15.27;;;8.27;;
64667;SDS011;51077;42.716;23.344;2022-10-31T04:55:33;13.57;;;8.10;;
64667;SDS011;51077;42.716;23.344;2022-10-31T04:58:00;17.88;;;8.20;;
64667;SDS011;51077;42.716;23.344;2022-10-31T05:00:25;13.30;;;7.47;;
64667;SDS011;51077;42.716;23.344;2022-10-31T05:02:52;13.23;;;6.90;;
64667;SDS011;51077;42.716;23.344;2022-10-31T05:05:21;12.10;;;7.18;;
64667;SDS011;51077;42.716;23.344;2022-10-31T05:07:50;12.65;;;7.25;;
64667;SDS011;51077;42.716;23.344;2022-10-31T05:10:27;11.18;;;6.25;;
64667;SDS011;51077;42.716;23.344;2022-10-31T05:13:27;11.25;;;6.53;;
64667;SDS011;51077;42.716;23.344;2022-10-31T05:15:52;11.90;;;6.32;;
64667;SDS011;51077;42.716;23.344;2022-10-31T05:18:18;12.97;;;6.80;;
64667;SDS011;51077;42.716;23.344;2022-10-31T05:20:43;12.87;;;6.77;;
64667;SDS011;51077;42.716;23.344;2022-10-31T05:23:08;12.93;;;6.53;;
64667;SDS011;51077;42.716;23.344;2022-10-31T05:25:34;14.40;;;6.97;;
64667;SDS011;51077;42.716;23.344;2022-10-31T05:27:59;13.73;;;7.30;;
64667;SDS011;51077;42.716;23.344;2022-10-31T05:30:28;10.93;;;6.53;;
64667;SDS011;51077;42.716;23.344;2022-10-31T05:32:57;13.27;;;7.07;;
64667;SDS011;51077;42.716;23.344;2022-10-31T05:35:27;11.07;;;6.43;;
64667;SDS011;51077;42.716;23.344;2022-10-31T05:37:54;14.30;;;6.63;;
64667;SDS011;51077;42.716;23.344;2022-10-31T05:40:20;15.97;;;7.37;;
64667;SDS011;51077;42.716;23.344;2022-10-31T05:42:46;11.30;;;6.50;;
64667;SDS011;51077;42.716;23.344;2022-10-31T05:45:15;12.80;;;6.30;;
64667;SDS011;51077;42.716;23.344;2022-10-31T05:47:41;16.05;;;8.00;;
64667;SDS011;51077;42.716;23.344;2022-10-31T05:50:08;14.67;;;6.90;;
64667;SDS011;51077;42.716;23.344;2022-10-31T05:52:34;16.50;;;7.05;;
64667;SDS011;51077;42.716;23.344;2022-10-31T05:55:00;12.68;;;7.10;;
64667;SDS011;51077;42.716;23.344;2022-10-31T05:57:26;17.97;;;7.27;;
64667;SDS011;51077;42.716;23.344;2022-10-31T05:59:52;12.50;;;7.13;;
64667;SDS011;51077;42.716;23.344;2022-10-31T06:02:18;16.67;;;7.30;;
64667;SDS011;51077;42.716;23.344;2022-10-31T06:04:45;12.30;;;7.00;;
64667;SDS011;51077;42.716;23.344;2022-10-31T06:07:10;12.93;;;7.50;;
64667;SDS011;51077;42.716;23.344;2022-10-31T06:09:35;22.47;;;7.40;;
64667;SDS011;51077;42.716;23.344;2022-10-31T06:12:01;17.17;;;7.53;;
64667;SDS011;51077;42.716;23.344;2022-10-31T06:14:26;18.57;;;7.47;;
64667;SDS011;51077;42.716;23.344;2022-10-31T06:16:52;16.33;;;7.77;;
64667;SDS011;51077;42.716;23.344;2022-10-31T06:19:19;16.88;;;7.38;;
64667;SDS011;51077;42.716;23.344;2022-10-31T06:21:44;14.53;;;6.97;;
64667;SDS011;51077;42.716;23.344;2022-10-31T06:24:10;22.47;;;7.93;;
64667;SDS011;51077;42.716;23.344;2022-10-31T06:26:35;18.60;;;8.43;;
64667;SDS011;51077;42.716;23.344;2022-10-31T06:29:00;20.20;;;8.17;;
64667;SDS011;51077;42.716;23.344;2022-10-31T06:31:26;16.37;;;8.50;;
64667;SDS011;51077;42.716;23.344;2022-10-31T06:33:51;16.37;;;8.33;;
64667;SDS011;51077;42.716;23.344;2022-10-31T06:36:17;19.63;;;8.27;;
64667;SDS011;51077;42.716;23.344;2022-10-31T06:38:42;17.93;;;8.30;;
64667;SDS011;51077;42.716;23.344;2022-10-31T06:41:07;19.03;;;7.70;;
64667;SDS011;51077;42.716;23.344;2022-10-31T06:43:33;16.33;;;7.90;;
64667;SDS011;51077;42.716;23.344;2022-10-31T06:46:01;19.53;;;8.50;;
64667;SDS011;51077;42.716;23.344;2022-10-31T06:48:28;20.50;;;9.07;;
64667;SDS011;51077;42.716;23.344;2022-10-31T06:50:56;15.37;;;7.50;;
64667;SDS011;51077;42.716;23.344;2022-10-31T06:53:23;19.23;;;7.18;;
64667;SDS011;51077;42.716;23.344;2022-10-31T06:55:48;18.73;;;8.10;;
64667;SDS011;51077;42.716;23.344;2022-10-31T06:58:14;18.50;;;7.80;;
64667;SDS011;51077;42.716;23.344;2022-10-31T07:00:39;12.70;;;6.97;;
64667;SDS011;51077;42.716;23.344;2022-10-31T07:03:06;12.47;;;7.43;;
64667;SDS011;51077;42.716;23.344;2022-10-31T07:05:35;14.93;;;7.93;;
64667;SDS011;51077;42.716;23.344;2022-10-31T07:08:01;13.77;;;8.30;;
64667;SDS011;51077;42.716;23.344;2022-10-31T07:10:29;13.50;;;7.35;;
64667;SDS011;51077;42.716;23.344;2022-10-31T07:12:56;15.93;;;7.85;;
64667;SDS011;51077;42.716;23.344;2022-10-31T07:15:23;16.23;;;8.07;;
64667;SDS011;51077;42.716;23.344;2022-10-31T07:17:50;20.83;;;7.75;;
64667;SDS011;51077;42.716;23.344;2022-10-31T07:20:16;14.27;;;7.17;;
64667;SDS011;51077;42.716;23.344;2022-10-31T07:22:42;11.73;;;6.95;;
64667;SDS011;51077;42.716;23.344;2022-10-31T07:25:07;9.17;;;6.03;;
64667;SDS011;51077;42.716;23.344;2022-10-31T07:27:40;17.15;;;6.95;;
64667;SDS011;51077;42.716;23.344;2022-10-31T07:30:08;12.02;;;6.05;;
64667;SDS011;51077;42.716;23.344;2022-10-31T07:32:38;14.23;;;7.22;;
64667;SDS011;51077;42.716;23.344;2022-10-31T07:35:17;15.25;;;7.60;;
64667;SDS011;51077;42.716;23.344;2022-10-31T07:37:44;15.05;;;7.80;;
64667;SDS011;51077;42.716;23.344;2022-10-31T07:40:11;12.30;;;7.35;;
64667;SDS011;51077;42.716;23.344;2022-10-31T07:42:41;14.52;;;7.25;;
64667;SDS011;51077;42.716;23.344;2022-10-31T07:45:09;14.88;;;8.10;;
64667;SDS011;51077;42.716;23.344;2022-10-31T07:50:05;15.13;;;8.05;;
64667;SDS011;51077;42.716;23.344;2022-10-31T07:52:31;13.25;;;7.43;;
64667;SDS011;51077;42.716;23.344;2022-10-31T07:54:57;15.53;;;8.03;;
64667;SDS011;51077;42.716;23.344;2022-10-31T07:57:22;14.23;;;7.47;;
64667;SDS011;51077;42.716;23.344;2022-10-31T07:59:47;12.30;;;7.53;;
64667;SDS011;51077;42.716;23.344;2022-10-31T08:02:13;14.60;;;7.97;;
64667;SDS011;51077;42.716;23.344;2022-10-31T08:04:38;12.63;;;6.70;;
64667;SDS011;51077;42.716;23.344;2022-10-31T08:07:04;16.07;;;7.60;;
64667;SDS011;51077;42.716;23.344;2022-10-31T08:09:29;12.37;;;7.13;;
64667;SDS011;51077;42.716;23.344;2022-10-31T08:11:54;15.27;;;8.23;;
64667;SDS011;51077;42.716;23.344;2022-10-31T08:14:20;20.63;;;8.27;;
64667;SDS011;51077;42.716;23.344;2022-10-31T08:16:46;15.07;;;7.93;;
64667;SDS011;51077;42.716;23.344;2022-10-31T08:19:11;14.40;;;7.80;;
64667;SDS011;51077;42.716;23.344;2022-10-31T08:21:36;12.07;;;7.37;;
64667;SDS011;51077;42.716;23.344;2022-10-31T08:24:02;12.80;;;7.50;;
64667;SDS011;51077;42.716;23.344;2022-10-31T08:26:27;10.83;;;7.77;;
64667;SDS011;51077;42.716;23.344;2022-10-31T08:28:53;13.87;;;7.37;;
64667;SDS011;51077;42.716;23.344;2022-10-31T08:31:19;12.90;;;7.68;;
64667;SDS011;51077;42.716;23.344;2022-10-31T08:33:45;10.23;;;7.10;;
64667;SDS011;51077;42.716;23.344;2022-10-31T08:36:11;12.20;;;7.63;;
64667;SDS011;51077;42.716;23.344;2022-10-31T08:38:36;12.93;;;6.97;;
64667;SDS011;51077;42.716;23.344;2022-10-31T08:41:01;14.97;;;8.17;;
64667;SDS011;51077;42.716;23.344;2022-10-31T08:43:27;16.07;;;8.37;;
64667;SDS011;51077;42.716;23.344;2022-10-31T08:45:52;13.60;;;7.03;;
64667;SDS011;51077;42.716;23.344;2022-10-31T08:48:19;12.55;;;7.30;;
64667;SDS011;51077;42.716;23.344;2022-10-31T08:50:45;15.67;;;7.30;;
64667;SDS011;51077;42.716;23.344;2022-10-31T08:53:12;16.70;;;7.30;;
64667;SDS011;51077;42.716;23.344;2022-10-31T08:55:42;14.63;;;6.78;;
64667;SDS011;51077;42.716;23.344;2022-10-31T08:58:09;17.35;;;7.35;;
64667;SDS011;51077;42.716;23.344;2022-10-31T09:00:37;13.55;;;7.40;;
64667;SDS011;51077;42.716;23.344;2022-10-31T09:03:04;15.77;;;7.85;;
64667;SDS011;51077;42.716;23.344;2022-10-31T09:05:34;12.55;;;7.25;;
64667;SDS011;51077;42.716;23.344;2022-10-31T09:08:00;14.63;;;7.67;;
64667;SDS011;51077;42.716;23.344;2022-10-31T09:10:27;14.10;;;7.70;;
64667;SDS011;51077;42.716;23.344;2022-10-31T09:12:54;17.33;;;7.25;;
64667;SDS011;51077;42.716;23.344;2022-10-31T09:15:21;12.43;;;6.85;;
64667;SDS011;51077;42.716;23.344;2022-10-31T09:17:47;14.47;;;6.77;;
64667;SDS011;51077;42.716;23.344;2022-10-31T09:20:13;10.00;;;6.75;;
64667;SDS011;51077;42.716;23.344;2022-10-31T09:22:38;12.30;;;6.97;;
64667;SDS011;51077;42.716;23.344;2022-10-31T09:25:03;13.57;;;7.37;;
64667;SDS011;51077;42.716;23.344;2022-10-31T09:27:29;10.10;;;6.63;;
64667;SDS011;51077;42.716;23.344;2022-10-31T09:29:54;10.33;;;6.67;;
64667;SDS011;51077;42.716;23.344;2022-10-31T09:32:20;13.33;;;6.30;;
64667;SDS011;51077;42.716;23.344;2022-10-31T09:34:45;12.60;;;6.67;;
64667;SDS011;51077;42.716;23.344;2022-10-31T09:37:10;9.60;;;6.30;;
64667;SDS011;51077;42.716;23.344;2022-10-31T09:39:36;14.53;;;6.90;;
64667;SDS011;51077;42.716;23.344;2022-10-31T09:42:04;13.43;;;6.47;;
64667;SDS011;51077;42.716;23.344;2022-10-31T09:55:51;10.80;;;6.37;;
64667;SDS011;51077;42.716;23.344;2022-10-31T09:58:21;9.13;;;6.17;;
64667;SDS011;51077;42.716;23.344;2022-10-31T10:00:51;13.23;;;6.67;;
64667;SDS011;51077;42.716;23.344;2022-10-31T10:03:34;12.47;;;6.97;;
64667;SDS011;51077;42.716;23.344;2022-10-31T10:08:39;11.27;;;6.27;;
64667;SDS011;51077;42.716;23.344;2022-10-31T10:11:19;12.70;;;6.30;;
64667;SDS011;51077;42.716;23.344;2022-10-31T10:25:21;10.30;;;4.97;;
64667;SDS011;51077;42.716;23.344;2022-10-31T10:27:58;12.32;;;4.70;;
64667;SDS011;51077;42.716;23.344;2022-10-31T10:33:22;8.47;;;5.17;;
64667;SDS011;51077;42.716;23.344;2022-10-31T10:35:55;8.97;;;4.40;;
64667;SDS011;51077;42.716;23.344;2022-10-31T10:40:50;10.90;;;4.33;;
64667;SDS011;51077;42.716;23.344;2022-10-31T10:43:20;9.90;;;4.63;;
64667;SDS011;51077;42.716;23.344;2022-10-31T10:49:14;7.00;;;3.30;;
64667;SDS011;51077;42.716;23.344;2022-10-31T10:57:37;9.57;;;4.10;;
64667;SDS011;51077;42.716;23.344;2022-10-31T11:02:43;9.13;;;4.47;;
64667;SDS011;51077;42.716;23.344;2022-10-31T11:05:13;8.63;;;3.80;;
64667;SDS011;51077;42.716;23.344;2022-10-31T11:07:45;8.00;;;3.90;;
64667;SDS011;51077;42.716;23.344;2022-10-31T11:10:14;8.20;;;3.63;;
64667;SDS011;51077;42.716;23.344;2022-10-31T11:12:41;5.43;;;2.80;;
64667;SDS011;51077;42.716;23.344;2022-10-31T11:15:16;7.70;;;3.27;;
64667;SDS011;51077;42.716;23.344;2022-10-31T11:17:47;7.17;;;3.27;;
64667;SDS011;51077;42.716;23.344;2022-10-31T11:22:41;7.83;;;2.83;;
64667;SDS011;51077;42.716;23.344;2022-10-31T11:25:19;7.33;;;3.40;;
64667;SDS011;51077;42.716;23.344;2022-10-31T11:28:05;8.10;;;3.00;;
64667;SDS011;51077;42.716;23.344;2022-10-31T11:30:45;7.00;;;3.03;;
64667;SDS011;51077;42.716;23.344;2022-10-31T11:33:17;7.73;;;3.20;;
64667;SDS011;51077;42.716;23.344;2022-10-31T11:35:47;6.63;;;3.30;;
64667;SDS011;51077;42.716;23.344;2022-10-31T11:38:17;5.53;;;3.07;;
64667;SDS011;51077;42.716;23.344;2022-10-31T11:40:56;9.37;;;2.70;;
64667;SDS011;51077;42.716;23.344;2022-10-31T11:43:24;8.43;;;3.27;;
64667;SDS011;51077;42.716;23.344;2022-10-31T11:45:51;7.13;;;2.83;;
64667;SDS011;51077;42.716;23.344;2022-10-31T11:48:19;10.27;;;3.53;;
64667;SDS011;51077;42.716;23.344;2022-10-31T11:50:51;6.73;;;3.23;;
64667;SDS011;51077;42.716;23.344;2022-10-31T11:53:26;6.50;;;3.30;;
64667;SDS011;51077;42.716;23.344;2022-10-31T11:56:13;9.87;;;2.87;;
64667;SDS011;51077;42.716;23.344;2022-10-31T11:58:39;6.40;;;3.03;;
64667;SDS011;51077;42.716;23.344;2022-10-31T12:01:05;6.80;;;2.50;;
64667;SDS011;51077;42.716;23.344;2022-10-31T12:03:50;6.63;;;3.47;;
64667;SDS011;51077;42.716;23.344;2022-10-31T12:06:26;5.07;;;2.37;;
64667;SDS011;51077;42.716;23.344;2022-10-31T12:08:55;8.33;;;3.07;;
64667;SDS011;51077;42.716;23.344;2022-10-31T12:19:37;5.85;;;3.22;;
64667;SDS011;51077;42.716;23.344;2022-10-31T12:22:15;11.63;;;3.00;;
64667;SDS011;51077;42.716;23.344;2022-10-31T12:27:35;8.43;;;3.27;;
64667;SDS011;51077;42.716;23.344;2022-10-31T12:30:27;6.10;;;2.87;;
64667;SDS011;51077;42.716;23.344;2022-10-31T12:35:51;8.13;;;3.03;;
64667;SDS011;51077;42.716;23.344;2022-10-31T12:38:30;9.83;;;3.17;;
64667;SDS011;51077;42.716;23.344;2022-10-31T12:43:47;8.03;;;2.67;;
64667;SDS011;51077;42.716;23.344;2022-10-31T12:46:55;5.22;;;2.72;;
64667;SDS011;51077;42.716;23.344;2022-10-31T12:52:00;6.83;;;2.83;;
64667;SDS011;51077;42.716;23.344;2022-10-31T12:57:21;6.97;;;3.30;;
64667;SDS011;51077;42.716;23.344;2022-10-31T13:00:00;12.47;;;3.30;;
64667;SDS011;51077;42.716;23.344;2022-10-31T13:05:40;7.27;;;3.30;;
64667;SDS011;51077;42.716;23.344;2022-10-31T13:08:15;8.20;;;2.87;;
64667;SDS011;51077;42.716;23.344;2022-10-31T13:10:46;10.33;;;3.77;;
64667;SDS011;51077;42.716;23.344;2022-10-31T13:13:19;6.83;;;3.17;;
64667;SDS011;51077;42.716;23.344;2022-10-31T13:15:55;9.03;;;3.20;;
64667;SDS011;51077;42.716;23.344;2022-10-31T13:19:09;11.07;;;3.57;;
64667;SDS011;51077;42.716;23.344;2022-10-31T13:21:24;7.90;;;3.00;;
64667;SDS011;51077;42.716;23.344;2022-10-31T13:23:52;8.60;;;3.47;;
64667;SDS011;51077;42.716;23.344;2022-10-31T13:26:42;6.30;;;2.77;;
64667;SDS011;51077;42.716;23.344;2022-10-31T13:29:33;15.40;;;3.47;;
64667;SDS011;51077;42.716;23.344;2022-10-31T13:32:05;6.47;;;2.53;;
64667;SDS011;51077;42.716;23.344;2022-10-31T13:34:51;8.00;;;3.10;;
64667;SDS011;51077;42.716;23.344;2022-10-31T13:40:05;5.43;;;2.60;;
64667;SDS011;51077;42.716;23.344;2022-10-31T13:42:40;8.77;;;2.90;;
64667;SDS011;51077;42.716;23.344;2022-10-31T13:45:20;7.93;;;2.95;;
64667;SDS011;51077;42.716;23.344;2022-10-31T13:50:40;7.88;;;2.80;;
64667;SDS011;51077;42.716;23.344;2022-10-31T13:55:42;4.88;;;2.67;;
64667;SDS011;51077;42.716;23.344;2022-10-31T13:58:20;7.40;;;2.80;;
64667;SDS011;51077;42.716;23.344;2022-10-31T14:00:46;7.10;;;2.55;;
64667;SDS011;51077;42.716;23.344;2022-10-31T14:03:44;7.10;;;3.00;;
64667;SDS011;51077;42.716;23.344;2022-10-31T14:06:20;7.50;;;3.08;;
64667;SDS011;51077;42.716;23.344;2022-10-31T14:08:49;9.73;;;3.40;;
64667;SDS011;51077;42.716;23.344;2022-10-31T14:11:22;8.93;;;3.42;;
64667;SDS011;51077;42.716;23.344;2022-10-31T14:13:51;8.45;;;3.40;;
64667;SDS011;51077;42.716;23.344;2022-10-31T14:16:22;7.53;;;3.43;;
64667;SDS011;51077;42.716;23.344;2022-10-31T14:19:00;7.93;;;3.35;;
64667;SDS011;51077;42.716;23.344;2022-10-31T14:21:36;8.45;;;3.25;;
64667;SDS011;51077;42.716;23.344;2022-10-31T14:24:13;9.18;;;3.17;;
64667;SDS011;51077;42.716;23.344;2022-10-31T14:29:25;9.07;;;2.97;;
64667;SDS011;51077;42.716;23.344;2022-10-31T14:34:41;11.57;;;3.33;;
64667;SDS011;51077;42.716;23.344;2022-10-31T14:37:14;10.65;;;3.88;;
64667;SDS011;51077;42.716;23.344;2022-10-31T14:50:42;13.85;;;3.90;;
64667;SDS011;51077;42.716;23.344;2022-10-31T14:55:55;12.57;;;4.40;;
64667;SDS011;51077;42.716;23.344;2022-10-31T14:58:22;12.27;;;4.93;;
64667;SDS011;51077;42.716;23.344;2022-10-31T15:00:55;10.13;;;5.00;;
64667;SDS011;51077;42.716;23.344;2022-10-31T15:03:24;10.85;;;4.75;;
64667;SDS011;51077;42.716;23.344;2022-10-31T15:05:54;10.82;;;5.10;;
64667;SDS011;51077;42.716;23.344;2022-10-31T15:11:03;11.48;;;5.65;;
64667;SDS011;51077;42.716;23.344;2022-10-31T15:13:35;11.63;;;5.18;;
64667;SDS011;51077;42.716;23.344;2022-10-31T15:16:07;13.48;;;5.53;;
64667;SDS011;51077;42.716;23.344;2022-10-31T15:18:36;14.27;;;5.78;;
64667;SDS011;51077;42.716;23.344;2022-10-31T15:21:11;16.20;;;5.75;;
64667;SDS011;51077;42.716;23.344;2022-10-31T15:23:41;12.80;;;6.78;;
64667;SDS011;51077;42.716;23.344;2022-10-31T15:26:11;12.82;;;6.38;;
64667;SDS011;51077;42.716;23.344;2022-10-31T15:28:41;15.57;;;6.47;;
64667;SDS011;51077;42.716;23.344;2022-10-31T15:31:12;13.63;;;5.97;;
64667;SDS011;51077;42.716;23.344;2022-10-31T15:36:16;18.10;;;7.05;;
64667;SDS011;51077;42.716;23.344;2022-10-31T15:38:48;22.05;;;8.02;;
64667;SDS011;51077;42.716;23.344;2022-10-31T15:41:34;19.80;;;7.85;;
64667;SDS011;51077;42.716;23.344;2022-10-31T15:44:15;22.75;;;7.78;;
64667;SDS011;51077;42.716;23.344;2022-10-31T15:49:50;17.05;;;6.70;;
64667;SDS011;51077;42.716;23.344;2022-10-31T15:54:53;20.73;;;6.43;;
64667;SDS011;51077;42.716;23.344;2022-10-31T15:57:21;26.63;;;9.32;;
64667;SDS011;51077;42.716;23.344;2022-10-31T15:59:48;25.33;;;9.10;;
64667;SDS011;51077;42.716;23.344;2022-10-31T16:02:17;27.85;;;8.73;;
64667;SDS011;51077;42.716;23.344;2022-10-31T16:05:15;26.92;;;9.43;;
64667;SDS011;51077;42.716;23.344;2022-10-31T16:07:47;25.13;;;10.90;;
64667;SDS011;51077;42.716;23.344;2022-10-31T16:10:21;35.00;;;12.32;;
64667;SDS011;51077;42.716;23.344;2022-10-31T16:12:49;25.25;;;11.13;;
64667;SDS011;51077;42.716;23.344;2022-10-31T16:15:15;26.70;;;10.70;;
64667;SDS011;51077;42.716;23.344;2022-10-31T16:17:43;25.05;;;9.93;;
64667;SDS011;51077;42.716;23.344;2022-10-31T16:20:23;30.90;;;10.82;;
64667;SDS011;51077;42.716;23.344;2022-10-31T16:22:52;26.92;;;9.48;;
64667;SDS011;51077;42.716;23.344;2022-10-31T16:25:24;23.52;;;9.07;;
64667;SDS011;51077;42.716;23.344;2022-10-31T16:27:52;25.83;;;8.18;;
64667;SDS011;51077;42.716;23.344;2022-10-31T16:30:30;19.85;;;7.20;;
64667;SDS011;51077;42.716;23.344;2022-10-31T16:33:02;21.23;;;6.90;;
64667;SDS011;51077;42.716;23.344;2022-10-31T16:37:58;20.80;;;6.95;;
64667;SDS011;51077;42.716;23.344;2022-10-31T16:40:23;19.23;;;6.57;;
64667;SDS011;51077;42.716;23.344;2022-10-31T16:42:50;22.75;;;6.82;;
64667;SDS011;51077;42.716;23.344;2022-10-31T16:47:43;18.13;;;7.30;;
64667;SDS011;51077;42.716;23.344;2022-10-31T16:50:12;19.00;;;7.38;;
64667;SDS011;51077;42.716;23.344;2022-10-31T16:52:49;17.92;;;7.55;;
64667;SDS011;51077;42.716;23.344;2022-10-31T16:55:15;27.70;;;8.93;;
64667;SDS011;51077;42.716;23.344;2022-10-31T16:57:42;24.25;;;10.45;;
64667;SDS011;51077;42.716;23.344;2022-10-31T17:00:15;24.27;;;10.80;;
64667;SDS011;51077;42.716;23.344;2022-10-31T17:02:42;24.02;;;9.85;;
64667;SDS011;51077;42.716;23.344;2022-10-31T17:05:12;22.48;;;11.10;;
64667;SDS011;51077;42.716;23.344;2022-10-31T17:07:39;30.30;;;11.70;;
64667;SDS011;51077;42.716;23.344;2022-10-31T17:10:05;29.80;;;10.73;;
64667;SDS011;51077;42.716;23.344;2022-10-31T17:12:32;19.05;;;9.55;;